Airfield :
LOGIN :

Register | Disclaimer

   EN    FR    IT 

 










Legend :    VFR   Marginal VFR   IFR   Intensive IFR   Very Intensive IFR
Visi :
Ceiling :
>= 8 km
>= 3000ft
5 to 8 km
1000 to 3000 ft
1500m to 5 km
500 to 1000 ft
800 to 1500m
200 to 500 ft
< 800m
< 200 ft
Symbols :   Thunderstorms  Fog  Heavy snow  Heavy precipitations  Wind > 20 kt
SIGMETs :     Misc.  Thunderstorms  Icing  Turbulence  Mountain Waves  Volcanic Ashes






- Airport Elevation : 247 ft
- IATA code : BLL


EKBI - Billund

CURRENT METAR :
  • 032050Z AUTO 27004KT 9999 OVC088/// 15/13 Q1016

EXPIRED METARs :
  • 032020Z AUTO 27006KT 9999 SCT090/// SCT170/// 16/13 Q1016
  • 031950Z AUTO 28006KT 9999 FEW020/// SCT180/// 16/13 Q1016
  • 031920Z AUTO 28005KT 9999 NCD 17/13 Q1016
  • 031850Z AUTO 28007KT 9999 NCD 17/14 Q1015
  • 031820Z AUTO 29008KT 260V320 9999 FEW026/// BKN140/// 18/14 Q1016
  • 030520Z AUTO 11006KT 9999 OVC110/// 15/13 Q1016

TAF TAF EKBI
Valid from the 03 at 18:00 until the 04 at 18:00 UTC


031706Z 0318/0418 26010KT 9999 FEW045
TEMPO 0408/0418 SHRA SCT025CB



MET'MAP, your aeronautical weather chart ! - Copyright ORBIFLY December 2007 - Disclaimer

ORBIFLY MET'MAP TEAM :

Programming & Development : Alexandra Zaïnal
Original concept : Baudouin d'Aumeries
Technical & hardware support : Manuel Goepfert
Assistance : Marc-Olivier Méhu




SOURCES & CREDITS :

   NOAA